Time;durP1;ratioP1;P1;durP2;ratioP2;P2;SDS_P1;SDS_P2;PMS_P1;PMS_P2;Temp;Humidity;BMP_temperature;BMP_pressure;BME280_temperature;BME280_humidity;BME280_pressure;Samples;Min_cycle;Max_cycle;Signal;HPM_P1;HPM_P2
2021/12/03 00:02:18;;;;;;;2.40;1.20;;;19.90;42.00;;;23.56;28.23;100214.97;4881131;29;20569;-76
2021/12/03 00:04:44;;;;;;;1.63;0.90;;;19.90;42.00;;;23.55;28.17;100223.09;4880770;29;20489;-76
2021/12/03 00:07:10;;;;;;;1.30;0.95;;;19.90;42.00;;;23.56;28.00;100225.63;4881403;29;20052;-76
2021/12/03 00:09:36;;;;;;;0.98;0.75;;;19.90;42.00;;;23.56;28.34;100214.97;4897344;29;20191;-76
2021/12/03 00:12:06;;;;;;;1.02;0.85;;;19.90;42.00;;;23.53;28.19;100212.53;4880739;29;20417;-75
2021/12/03 00:14:34;;;;;;;1.10;0.82;;;19.90;42.00;;;23.54;28.14;100205.38;4880726;29;20060;-76
2021/12/03 00:17:00;;;;;;;0.80;0.80;;;19.90;42.00;;;23.54;28.12;100197.38;4880667;29;20128;-76
2021/12/03 00:19:26;;;;;;;1.10;0.85;;;19.90;42.00;;;23.55;28.25;100207.09;4880508;29;20044;-76
2021/12/03 00:21:52;;;;;;;1.00;0.80;;;19.90;42.00;;;23.55;28.24;100209.75;4880668;29;20405;-76
2021/12/03 00:24:18;;;;;;;1.02;0.80;;;19.90;42.00;;;23.53;28.32;100209.88;4897346;29;20489;-76
2021/12/03 00:26:44;;;;;;;1.80;1.10;;;19.90;42.00;;;23.53;28.31;100214.38;4880680;29;20064;-76
2021/12/03 00:29:10;;;;;;;0.90;0.80;;;19.90;42.00;;;23.54;28.01;100213.38;4880389;29;20056;-76
2021/12/03 00:31:36;;;;;;;1.42;0.90;;;19.90;42.00;;;23.53;28.24;100215.22;4880718;29;20060;-76
2021/12/03 00:34:03;;;;;;;0.85;0.70;;;19.90;42.00;;;23.56;28.36;100222.97;4880293;29;20055;-76
2021/12/03 00:36:29;;;;;;;1.13;0.80;;;19.90;42.00;;;23.53;28.23;100209.88;4880490;29;20048;-76
2021/12/03 00:38:58;;;;;;;1.60;0.93;;;19.90;42.00;;;23.54;28.04;100219.59;4880396;29;20049;-76
2021/12/03 00:41:30;;;;;;;1.45;0.90;;;19.90;42.00;;;23.55;28.28;100221.25;4865321;29;20053;-76
2021/12/03 00:43:56;;;;;;;0.80;0.80;;;19.90;42.00;;;23.56;28.08;100222.13;4880884;29;20083;-76
2021/12/03 00:46:22;;;;;;;0.82;0.73;;;19.90;42.50;;;23.53;28.26;100217.88;4880294;29;20084;-76
2021/12/03 00:48:53;;;;;;;1.33;1.10;;;19.90;41.90;;;23.53;28.30;100231.22;4880193;29;20048;-76
2021/12/03 00:51:22;;;;;;;1.30;0.93;;;19.90;42.00;;;23.54;28.13;100237.41;4865011;29;20045;-75
2021/12/03 00:53:48;;;;;;;0.90;0.80;;;19.90;42.00;;;23.56;28.06;100233.66;4897008;29;20052;-76
2021/12/03 00:56:16;;;;;;;0.95;0.95;;;19.90;41.90;;;23.53;28.18;100233.06;4897094;29;20401;-76
2021/12/03 00:58:42;;;;;;;0.73;0.70;;;19.90;41.90;;;23.56;28.15;100240.81;4864503;29;20432;-76
2021/12/03 01:01:08;;;;;;;1.40;0.98;;;19.90;41.90;;;23.56;28.33;100238.16;4880409;29;20481;-76
2021/12/03 01:03:36;;;;;;;0.75;0.75;;;19.90;41.90;;;23.53;28.17;100227.72;4880004;29;20056;-76
2021/12/03 01:06:03;;;;;;;0.82;0.82;;;19.90;41.90;;;23.54;28.25;100230.25;4880455;29;20072;-76
2021/12/03 01:08:31;;;;;;;1.10;0.80;;;19.90;41.90;;;23.55;28.11;100237.28;4879800;29;20087;-76
2021/12/03 01:10:58;;;;;;;0.75;0.75;;;19.90;41.90;;;23.53;28.10;100228.56;4883512;29;20123;-76
2021/12/03 01:13:24;;;;;;;1.00;0.80;;;19.90;41.90;;;23.55;28.07;100231.09;4883128;29;20044;-76
2021/12/03 01:15:50;;;;;;;0.73;0.73;;;19.90;41.90;;;23.56;28.17;100236.31;4883298;29;20388;-76
2021/12/03 01:18:16;;;;;;;1.27;0.70;;;19.90;41.90;;;23.56;28.30;100230.13;4899981;29;20052;-76
2021/12/03 01:20:43;;;;;;;1.45;0.88;;;19.90;41.90;;;23.55;28.18;100228.44;4883217;29;20446;-76
2021/12/03 01:23:11;;;;;;;1.13;0.80;;;19.90;41.90;;;23.54;28.21;100226.72;4883115;29;20052;-76
2021/12/03 01:25:37;;;;;;;1.08;0.70;;;19.90;41.90;;;23.55;28.08;100242.63;4882988;29;20060;-76
2021/12/03 01:28:04;;;;;;;0.93;0.80;;;19.90;41.90;;;23.54;28.20;100237.41;4883402;29;20052;-76
2021/12/03 01:30:31;;;;;;;1.20;0.90;;;19.90;41.90;;;23.56;28.31;100244.31;4882967;29;20143;-76
2021/12/03 01:33:00;;;;;;;0.88;0.70;;;19.90;41.90;;;23.57;28.25;100234.47;4867362;29;20073;-76
2021/12/03 01:35:27;;;;;;;1.10;0.80;;;19.90;41.90;;;23.57;27.98;100242.50;4899765;29;20048;-76
2021/12/03 01:37:54;;;;;;;1.50;0.98;;;19.90;41.90;;;23.55;28.42;100239.09;4883161;29;20389;-76
2021/12/03 01:40:23;;;;;;;0.88;0.85;;;19.90;41.90;;;23.56;28.01;100247.00;4883332;29;20470;-76
2021/12/03 01:42:49;;;;;;;1.13;0.70;;;19.90;41.90;;;23.55;28.22;100247.94;4880991;29;20053;-76
2021/12/03 01:45:21;;;;;;;1.73;1.15;;;19.90;41.80;;;23.53;28.23;100241.91;4883375;29;20053;-75
2021/12/03 01:47:49;;;;;;;1.52;1.00;;;19.90;42.40;;;23.58;28.17;100252.19;4899855;29;20481;-75
2021/12/03 01:50:16;;;;;;;0.82;0.80;;;19.90;41.80;;;23.54;28.24;100240.06;4882752;29;20092;-75
2021/12/03 01:52:43;;;;;;;1.00;0.80;;;19.90;41.90;;;23.57;27.99;100245.16;4882494;29;20052;-76
2021/12/03 01:55:12;;;;;;;0.77;0.77;;;19.90;41.90;;;23.55;27.88;100244.44;4899550;29;20045;-75
2021/12/03 01:57:38;;;;;;;0.73;0.70;;;19.90;41.80;;;23.55;28.12;100257.78;4882960;29;20139;-75
2021/12/03 02:00:20;;;;;;;0.80;0.73;;;19.90;41.80;;;23.55;28.02;100247.94;4882555;29;20048;-76
2021/12/03 02:02:46;;;;;;;0.90;0.73;;;19.90;41.80;;;23.56;28.05;100249.66;4882792;29;20152;-76
2021/12/03 02:05:13;;;;;;;0.95;0.80;;;19.90;41.80;;;23.58;27.91;100249.53;4866943;29;20049;-75
2021/12/03 02:07:39;;;;;;;1.25;1.15;;;19.90;42.30;;;23.56;27.94;100249.66;4899364;29;20060;-76
2021/12/03 02:10:09;;;;;;;1.10;0.90;;;19.90;41.80;;;23.55;28.08;100245.28;4882436;29;20505;-75
2021/12/03 02:12:35;;;;;;;1.95;0.90;;;19.90;41.80;;;23.58;28.03;100252.19;4882299;29;20141;-76
2021/12/03 02:15:02;;;;;;;1.00;0.82;;;19.90;41.80;;;23.57;28.13;100245.16;4882577;29;20090;-75
2021/12/03 02:17:28;;;;;;;1.15;0.80;;;19.90;41.80;;;23.56;28.04;100236.31;4882192;29;20044;-75
2021/12/03 02:19:54;;;;;;;0.70;0.60;;;19.90;41.80;;;23.55;28.02;100244.44;4882363;29;20052;-76
2021/12/03 02:22:20;;;;;;;1.02;0.93;;;19.90;41.80;;;23.55;27.97;100245.28;4881630;29;20056;-76
2021/12/03 02:24:46;;;;;;;1.15;1.00;;;19.90;41.80;;;23.57;27.98;100250.50;4866627;29;20056;-76
2021/12/03 02:27:12;;;;;;;0.65;0.60;;;19.90;41.80;;;23.57;27.91;100259.38;4882622;29;20516;-76
2021/12/03 02:29:37;;;;;;;1.20;0.88;;;19.90;41.80;;;23.57;28.02;100254.03;4882365;29;20466;-76
2021/12/03 02:32:04;;;;;;;1.10;0.90;;;19.90;41.80;;;23.53;28.03;100241.91;4882087;29;20060;-76
2021/12/03 02:34:30;;;;;;;1.30;0.90;;;19.90;41.70;;;23.56;28.04;100249.66;4882363;29;20059;-76
2021/12/03 02:36:57;;;;;;;1.50;0.80;;;19.90;41.80;;;23.54;28.16;100253.41;4882040;29;20058;-76
2021/12/03 02:39:22;;;;;;;0.88;0.88;;;19.90;41.80;;;23.56;28.11;100256.81;4882331;29;20045;-76
2021/12/03 02:41:48;;;;;;;1.38;0.93;;;19.90;41.80;;;23.55;28.14;100261.28;4881976;29;20055;-76
2021/12/03 02:44:14;;;;;;;1.27;0.80;;;19.90;41.70;;;23.55;27.92;100258.63;4881968;29;20059;-76
2021/12/03 02:46:40;;;;;;;0.80;0.80;;;19.90;41.70;;;23.57;27.99;100266.50;4866584;29;20052;-76
2021/12/03 02:49:08;;;;;;;0.73;0.73;;;20.00;41.70;;;23.59;28.10;100299.25;4882176;29;20056;-76
2021/12/03 02:51:34;;;;;;;1.85;0.73;;;20.00;41.70;;;23.58;28.00;100301.06;4881977;29;20061;-76
2021/12/03 02:54:00;;;;;;;1.10;0.93;;;20.00;41.70;;;23.59;28.05;100301.91;4881864;29;20056;-76
2021/12/03 02:56:27;;;;;;;0.88;0.82;;;19.90;41.60;;;23.59;27.98;100307.25;4881473;29;20454;-76
2021/12/03 02:58:52;;;;;;;0.73;0.73;;;20.00;41.60;;;23.61;27.94;100310.66;4881978;29;20083;-76
2021/12/03 03:01:18;;;;;;;0.93;0.80;;;20.00;41.60;;;23.62;28.05;100307.00;4898583;29;20055;-76
2021/12/03 03:03:44;;;;;;;0.70;0.70;;;20.00;41.50;;;23.61;28.00;100306.16;4881802;29;20164;-76
2021/12/03 03:06:10;;;;;;;0.65;0.65;;;20.00;41.60;;;23.60;27.81;100301.78;4881647;29;20126;-76
2021/12/03 03:08:39;;;;;;;1.00;0.85;;;20.00;41.60;;;23.61;27.96;100281.31;4881549;29;20055;-76
2021/12/03 03:11:06;;;;;;;0.70;0.70;;;20.00;41.50;;;23.62;27.95;100278.53;4866228;29;20052;-75
2021/12/03 03:13:33;;;;;;;1.23;0.85;;;20.00;41.60;;;23.63;27.83;100288.19;4882111;29;20135;-76
2021/12/03 03:15:59;;;;;;;0.75;0.75;;;20.10;41.60;;;23.64;28.06;100273.91;4881291;29;20055;-76
2021/12/03 03:18:28;;;;;;;1.23;0.88;;;20.00;41.50;;;23.62;28.05;100275.84;4881450;29;20064;-76
2021/12/03 03:20:56;;;;;;;0.93;0.77;;;20.00;41.60;;;23.63;27.95;100268.69;4881311;29;20045;-76
2021/12/03 03:23:22;;;;;;;0.80;0.80;;;20.00;41.60;;;23.66;28.07;100284.44;4881344;29;20449;-75
2021/12/03 03:25:50;;;;;;;0.85;0.85;;;20.00;41.50;;;23.64;28.02;100281.91;4881347;29;20053;-76
2021/12/03 03:28:16;;;;;;;0.75;0.73;;;20.00;41.50;;;23.66;28.03;100276.44;4865582;29;20045;-75
2021/12/03 03:30:45;;;;;;;0.75;0.70;;;20.00;41.50;;;23.65;28.11;100272.91;4881166;29;20061;-76
2021/12/03 03:33:12;;;;;;;0.82;0.80;;;20.10;41.50;;;23.68;27.79;100277.16;4880375;29;20496;-76
2021/12/03 03:35:38;;;;;;;0.80;0.80;;;20.10;41.50;;;23.71;27.81;100281.41;4881203;29;20184;-76
2021/12/03 03:38:05;;;;;;;0.80;0.80;;;20.10;41.50;;;23.71;28.03;100271.56;4881231;29;20105;-76
2021/12/03 03:40:31;;;;;;;0.70;0.70;;;20.10;41.50;;;23.70;27.93;100261.00;4880990;29;20064;-76
2021/12/03 03:42:59;;;;;;;0.95;0.80;;;20.10;41.50;;;23.72;27.90;100272.41;4898123;29;20088;-76
2021/12/03 03:45:27;;;;;;;1.00;0.65;;;20.10;42.00;;;23.71;27.98;100268.06;4881175;29;20048;-76
2021/12/03 03:47:52;;;;;;;0.70;0.70;;;20.10;41.40;;;23.73;28.00;100276.78;4897921;29;20060;-76
2021/12/03 03:50:20;;;;;;;0.80;0.80;;;20.20;41.50;;;23.73;27.82;100277.63;4863676;29;20053;-76
2021/12/03 03:52:49;;;;;;;0.73;0.70;;;20.20;41.50;;;23.74;27.80;100275.78;4865406;29;20139;-76
2021/12/03 03:55:17;;;;;;;1.63;0.85;;;20.10;41.40;;;23.78;27.75;100282.56;4880949;29;20481;-76
2021/12/03 03:57:44;;;;;;;1.33;0.80;;;20.10;41.40;;;23.77;27.79;100279.06;4880824;29;20060;-75
2021/12/03 04:00:16;;;;;;;1.10;1.00;;;20.10;41.30;;;23.73;27.86;100269.59;4897593;29;20049;-76
2021/12/03 04:02:44;;;;;;;1.10;0.90;;;20.10;41.30;;;23.79;27.95;100277.13;4865362;29;20080;-76
2021/12/03 04:05:11;;;;;;;0.60;0.60;;;20.20;41.40;;;23.81;27.72;100285.00;4881208;29;20489;-76
2021/12/03 04:07:38;;;;;;;1.02;0.80;;;20.20;41.30;;;23.79;27.91;100274.44;4880796;29;20053;-76
2021/12/03 04:10:05;;;;;;;0.75;0.70;;;20.20;41.40;;;23.79;27.81;100278.91;4865020;29;20052;-76
2021/12/03 04:12:32;;;;;;;1.25;0.90;;;20.20;41.30;;;23.81;27.94;100275.16;4865128;29;20056;-76
2021/12/03 04:14:57;;;;;;;0.73;0.73;;;20.20;41.30;;;23.79;27.76;100253.09;4880570;29;20481;-76
2021/12/03 04:17:23;;;;;;;1.23;0.90;;;20.20;41.30;;;23.83;27.86;100254.53;4880699;29;20048;-75
2021/12/03 04:19:49;;;;;;;0.88;0.70;;;20.20;41.20;;;23.84;27.80;100250.06;4897135;29;20124;-76
2021/12/03 04:22:18;;;;;;;0.88;0.88;;;20.20;41.20;;;23.81;27.77;100252.97;4897672;29;20052;-76
2021/12/03 04:24:44;;;;;;;0.68;0.68;;;20.20;41.20;;;23.82;27.69;100266.22;4881274;29;20063;-76
2021/12/03 04:27:10;;;;;;;0.85;0.80;;;20.20;41.20;;;23.83;27.67;100265.22;4880628;29;20492;-76
2021/12/03 04:29:35;;;;;;;0.70;0.70;;;20.20;41.30;;;23.84;27.67;100258.09;4861006;29;20075;-76
2021/12/03 04:32:02;;;;;;;0.70;0.70;;;20.20;41.30;;;23.82;27.78;100255.53;4880801;29;20044;-76
2021/12/03 04:34:28;;;;;;;0.88;0.70;;;20.20;41.30;;;23.85;27.90;100247.25;4897308;29;20044;-76
2021/12/03 04:36:54;;;;;;;1.17;0.80;;;20.20;41.30;;;23.81;27.64;100237.78;4880229;29;20508;-76
2021/12/03 04:39:20;;;;;;;0.50;0.50;;;20.20;41.30;;;23.83;27.75;100243.88;4880235;29;20053;-75
2021/12/03 04:41:46;;;;;;;0.70;0.70;;;20.20;41.20;;;23.86;27.91;100253.44;4880577;29;20408;-76
2021/12/03 04:44:11;;;;;;;0.70;0.70;;;20.20;41.20;;;23.83;27.64;100248.38;4898284;29;20040;-76
2021/12/03 04:46:37;;;;;;;1.33;0.85;;;20.20;41.20;;;23.82;27.60;100255.53;4900462;29;20147;-76
2021/12/03 04:49:03;;;;;;;0.80;0.80;;;20.20;41.20;;;23.84;27.84;100266.94;4883686;29;20076;-76
2021/12/03 04:51:29;;;;;;;0.88;0.82;;;20.20;41.20;;;23.84;27.62;100274.09;4883571;29;20084;-76
2021/12/03 04:53:55;;;;;;;0.68;0.63;;;20.20;41.20;;;23.85;27.76;100281.94;4883551;29;20507;-76
2021/12/03 04:56:20;;;;;;;0.73;0.73;;;20.20;41.10;;;23.85;27.63;100286.47;4883854;29;20052;-76
2021/12/03 04:58:47;;;;;;;0.65;0.60;;;20.20;41.10;;;23.85;27.63;100281.94;4883312;29;20076;-76
2021/12/03 05:01:12;;;;;;;0.90;0.80;;;20.20;41.10;;;23.86;27.85;100272.97;4900280;29;20056;-76
2021/12/03 05:03:38;;;;;;;1.00;0.80;;;20.20;41.10;;;23.84;27.48;100264.25;4883251;29;20048;-76
2021/12/03 05:06:08;;;;;;;0.95;0.80;;;20.20;41.10;;;23.83;27.53;100259.88;4883425;29;20056;-76
2021/12/03 05:08:34;;;;;;;1.05;0.95;;;20.20;41.10;;;23.87;27.78;100268.47;4883442;29;20104;-76
2021/12/03 05:11:00;;;;;;;0.82;0.82;;;20.20;41.10;;;23.84;27.60;100261.59;4892335;29;20541;-76
2021/12/03 05:13:30;;;;;;;0.80;0.80;;;20.20;41.20;;;23.86;27.67;100272.16;4883305;29;20050;-76
2021/12/03 05:15:57;;;;;;;0.85;0.70;;;20.20;41.20;;;23.84;27.81;100258.09;4883284;29;20080;-76
2021/12/03 05:18:27;;;;;;;0.85;0.75;;;20.20;41.20;;;23.83;27.53;100251.88;4882937;29;20056;-76
2021/12/03 05:20:56;;;;;;;0.77;0.77;;;20.20;41.10;;;23.84;27.63;100258.09;4883188;29;20434;-76
2021/12/03 05:23:25;;;;;;;0.95;0.75;;;20.20;41.20;;;23.86;27.57;100256.13;4899882;29;20081;-76
2021/12/03 05:25:52;;;;;;;0.77;0.75;;;20.20;41.10;;;23.84;27.60;100261.59;4883187;29;20049;-76
2021/12/03 05:28:18;;;;;;;1.00;0.80;;;20.20;41.10;;;23.89;27.55;100268.34;4883147;29;20052;-76
2021/12/03 05:30:44;;;;;;;0.73;0.65;;;20.20;41.10;;;23.84;27.62;100255.41;4867346;29;20052;-76
2021/12/03 05:33:10;;;;;;;0.63;0.63;;;20.20;41.10;;;23.88;27.60;100266.69;4867486;29;20075;-76
2021/12/03 05:35:36;;;;;;;0.98;0.80;;;20.20;41.10;;;23.85;27.39;100257.94;4881156;29;20045;-76
2021/12/03 05:38:03;;;;;;;0.70;0.70;;;20.20;41.10;;;23.88;27.63;100270.19;4882948;29;20053;-76
2021/12/03 05:40:30;;;;;;;0.70;0.60;;;20.20;41.10;;;23.86;27.70;100264.97;4882881;29;20061;-76
2021/12/03 05:42:56;;;;;;;0.65;0.65;;;20.20;41.10;;;23.86;27.69;100264.13;4883077;29;20056;-76
2021/12/03 05:45:35;;;;;;;0.60;0.60;;;20.20;41.10;;;23.84;27.48;100264.25;4882789;29;20045;-76
2021/12/03 05:48:01;;;;;;;0.77;0.77;;;20.30;41.10;;;23.90;27.60;100265.56;4899675;29;20060;-75
2021/12/03 05:50:27;;;;;;;1.83;1.00;;;20.20;41.10;;;23.88;27.60;100262.19;4899402;29;20056;-75
2021/12/03 05:52:54;;;;;;;1.08;0.80;;;20.30;41.10;;;23.85;27.47;100257.94;4882524;29;20049;-75
2021/12/03 05:55:21;;;;;;;0.80;0.80;;;20.20;41.10;;;23.90;27.65;100262.88;4882353;29;20139;-75
2021/12/03 05:57:47;;;;;;;1.00;0.80;;;20.30;41.10;;;23.89;27.54;100265.69;4882458;29;20054;-76
2021/12/03 06:00:21;;;;;;;0.73;0.70;;;20.20;41.10;;;23.87;27.62;100268.47;4882542;29;20048;-75
2021/12/03 06:02:47;;;;;;;1.42;0.68;;;20.20;41.10;;;23.89;27.49;100269.22;4880499;29;20544;-75
2021/12/03 06:05:13;;;;;;;0.73;0.60;;;20.20;41.10;;;23.89;27.62;100274.56;4882570;29;20053;-75
2021/12/03 06:07:40;;;;;;;0.95;0.63;;;20.20;41.10;;;23.85;27.48;100268.59;4867326;29;20139;-75
2021/12/03 06:10:09;;;;;;;1.92;0.60;;;20.20;41.10;;;23.90;27.54;100273.56;4882440;29;20059;-75
2021/12/03 06:12:35;;;;;;;0.82;0.70;;;20.30;41.10;;;23.90;27.58;100272.72;4899290;29;20052;-76
2021/12/03 06:15:01;;;;;;;2.17;0.90;;;20.30;41.10;;;23.90;27.43;100272.72;4899205;29;20052;-75
2021/12/03 06:17:27;;;;;;;0.80;0.70;;;20.30;41.10;;;23.88;27.51;100264.00;4882921;29;20052;-75
2021/12/03 06:19:53;;;;;;;0.68;0.68;;;20.30;41.00;;;23.90;27.59;100268.22;4882243;29;20113;-76
2021/12/03 06:22:19;;;;;;;2.08;0.80;;;20.30;41.00;;;23.90;27.47;100259.38;4866885;29;20057;-75
2021/12/03 06:24:44;;;;;;;0.60;0.60;;;20.30;41.00;;;23.91;27.48;100261.09;4882196;29;20064;-76
2021/12/03 06:27:10;;;;;;;0.70;0.68;;;20.30;41.10;;;23.89;27.45;100255.88;4882221;29;20052;-75
2021/12/03 06:29:36;;;;;;;1.05;0.70;;;20.20;41.00;;;23.90;27.58;100252.22;4881926;29;20044;-76
2021/12/03 06:32:02;;;;;;;1.42;0.77;;;20.30;41.10;;;23.90;27.45;100262.06;4882151;29;20139;-76
2021/12/03 06:34:27;;;;;;;2.45;0.85;;;20.20;41.00;;;23.90;27.51;100265.56;4882352;29;20481;-75
2021/12/03 06:36:53;;;;;;;0.60;0.60;;;20.30;41.00;;;23.91;27.57;100269.09;4882296;29;20056;-76
2021/12/03 06:39:19;;;;;;;0.70;0.70;;;20.30;41.00;;;23.91;27.60;100267.25;4882064;29;20481;-76
2021/12/03 06:41:45;;;;;;;1.00;0.70;;;20.30;41.00;;;23.90;27.47;100262.88;4882341;29;20057;-75
2021/12/03 06:44:11;;;;;;;1.00;0.77;;;20.30;41.00;;;23.92;27.58;100260.09;4881963;29;20108;-76
2021/12/03 06:46:36;;;;;;;0.95;0.80;;;20.30;41.00;;;23.89;27.50;100260.34;4881901;29;20052;-75
2021/12/03 06:49:03;;;;;;;1.08;0.75;;;20.30;41.00;;;23.92;27.69;100257.41;4881723;29;20087;-76
2021/12/03 06:51:31;;;;;;;0.80;0.80;;;20.30;41.00;;;23.91;27.63;100266.44;4866160;29;20048;-75
2021/12/03 06:54:06;;;;;;;0.68;0.60;;;20.30;41.00;;;23.84;27.43;100258.91;4881542;29;20045;-76
2021/12/03 06:56:52;;;;;;;0.82;0.73;;;20.30;41.00;;;23.91;27.65;100266.44;4883192;29;20053;-76
2021/12/03 06:59:20;;;;;;;0.90;0.70;;;20.30;41.00;;;23.91;27.61;100261.09;4881297;29;20051;-76
2021/12/03 07:01:46;;;;;;;0.60;0.60;;;20.30;41.00;;;23.89;27.50;100263.88;4866330;29;20100;-76
2021/12/03 07:04:12;;;;;;;0.65;0.65;;;20.30;41.00;;;23.88;27.68;100264.84;4898421;29;20501;-75
2021/12/03 07:06:41;;;;;;;0.93;0.60;;;20.20;41.00;;;23.85;27.54;100259.75;4881389;29;20049;-75
2021/12/03 07:09:07;;;;;;;0.70;0.70;;;20.20;41.00;;;23.88;27.59;100262.19;4881581;29;20053;-75
2021/12/03 07:11:33;;;;;;;0.95;0.85;;;20.20;41.00;;;23.90;27.76;100275.41;4881452;29;20155;-76
2021/12/03 07:13:59;;;;;;;0.82;0.82;;;20.20;41.00;;;23.89;27.46;100271.88;4898229;29;20075;-75
2021/12/03 07:16:26;;;;;;;0.85;0.60;;;20.20;41.00;;;23.89;27.65;100271.03;4881400;29;20405;-75
2021/12/03 07:18:52;;;;;;;0.80;0.80;;;20.20;41.00;;;23.87;27.54;100268.47;4881542;29;20493;-75
2021/12/03 07:21:18;;;;;;;0.75;0.70;;;20.20;41.00;;;23.90;27.55;100275.41;4898040;29;20508;-76
2021/12/03 07:23:43;;;;;;;0.70;0.70;;;20.20;41.00;;;23.86;27.48;100270.31;4881391;29;20056;-76
2021/12/03 07:26:09;;;;;;;0.70;0.70;;;20.20;41.00;;;23.90;27.76;100270.06;4881311;29;20489;-75
2021/12/03 07:28:35;;;;;;;1.25;0.70;;;20.20;41.00;;;23.88;27.45;100267.50;4865719;29;20051;-76
2021/12/03 07:31:01;;;;;;;0.75;0.60;;;20.20;41.00;;;23.87;27.28;100271.16;4866149;29;20067;-76
2021/12/03 07:33:29;;;;;;;1.27;0.75;;;20.20;41.00;;;23.86;27.59;100264.13;4898259;29;20396;-76
2021/12/03 07:35:55;;;;;;;0.60;0.60;;;20.20;41.00;;;23.88;27.57;100272.84;4881558;29;20083;-76
2021/12/03 07:38:21;;;;;;;1.05;0.80;;;20.20;41.00;;;23.87;27.37;100268.47;4881753;29;20393;-76
2021/12/03 07:40:49;;;;;;;0.82;0.82;;;20.20;41.00;;;23.89;27.46;100271.88;4881042;29;20056;-76
2021/12/03 07:43:18;;;;;;;0.65;0.65;;;20.20;41.00;;;23.90;27.57;100270.06;4881085;29;20048;-76
2021/12/03 07:45:47;;;;;;;0.60;0.60;;;20.20;40.90;;;23.88;27.55;100264.00;4880862;29;20050;-76
2021/12/03 07:48:12;;;;;;;1.88;0.70;;;20.30;41.00;;;23.89;27.35;100269.22;4881324;29;20057;-76
2021/12/03 07:50:40;;;;;;;1.17;1.00;;;20.30;41.00;;;23.88;27.62;100256.84;4880996;29;20075;-75
2021/12/03 07:53:08;;;;;;;0.60;0.60;;;20.20;41.00;;;23.88;27.33;100261.34;4896372;29;20053;-76
2021/12/03 07:55:35;;;;;;;1.73;0.70;;;20.20;40.90;;;23.89;27.57;100257.66;4865406;29;20143;-76
2021/12/03 07:58:04;;;;;;;0.60;0.57;;;20.20;40.90;;;23.91;27.61;100259.25;4880968;29;20045;-76
2021/12/03 08:00:30;;;;;;;0.60;0.60;;;20.30;41.00;;;23.92;27.56;100268.09;4880979;29;20180;-76
2021/12/03 08:02:56;;;;;;;0.65;0.60;;;20.30;40.90;;;23.90;27.64;100262.88;4865179;29;20048;-75
2021/12/03 08:05:22;;;;;;;1.58;0.70;;;20.30;40.90;;;23.89;27.47;100260.34;4880737;29;20107;-76
2021/12/03 08:07:49;;;;;;;1.50;0.60;;;20.30;40.90;;;23.91;27.46;100261.94;4880748;29;20076;-76
2021/12/03 08:10:15;;;;;;;2.25;0.90;;;20.30;40.90;;;23.91;27.44;100267.25;4880663;29;20207;-76
2021/12/03 08:12:46;;;;;;;0.80;0.80;;;20.30;40.80;;;23.93;27.58;100265.31;4880699;29;20141;-76
2021/12/03 08:15:14;;;;;;;0.57;0.57;;;20.30;40.80;;;23.94;27.62;100263.47;4865481;29;20052;-76
2021/12/03 08:17:42;;;;;;;1.25;0.70;;;20.30;40.80;;;23.92;27.35;100265.44;4880707;29;20095;-76
2021/12/03 08:20:11;;;;;;;0.70;0.70;;;20.30;40.80;;;23.95;27.40;100270.53;4902301;29;20424;-76
2021/12/03 08:22:40;;;;;;;1.00;0.73;;;20.40;40.80;;;23.94;27.68;100266.13;4903724;29;20064;-76
2021/12/03 08:25:08;;;;;;;1.00;0.80;;;20.40;40.80;;;23.93;27.44;100270.66;4887018;29;20045;-76
2021/12/03 08:27:35;;;;;;;0.60;0.60;;;20.40;40.80;;;23.97;27.35;100279.25;4871318;29;20143;-76
2021/12/03 08:30:00;;;;;;;1.08;0.80;;;20.40;40.80;;;23.95;27.33;100281.19;4884751;29;20056;-76
2021/12/03 08:32:26;;;;;;;0.80;0.70;;;20.40;40.80;;;23.97;27.53;100289.91;4903424;29;20064;-76
2021/12/03 08:34:52;;;;;;;0.55;0.55;;;20.40;40.80;;;23.98;27.36;100288.97;4886577;29;20056;-76
2021/12/03 08:37:18;;;;;;;0.93;0.80;;;20.40;40.80;;;23.95;27.38;100281.19;4886984;29;20084;-76
2021/12/03 08:39:44;;;;;;;0.77;0.63;;;20.40;40.80;;;23.97;27.44;100288.13;4886668;29;20055;-76
2021/12/03 08:42:11;;;;;;;1.13;0.95;;;20.40;40.80;;;23.98;27.28;100294.28;4886633;29;20497;-76
2021/12/03 08:44:37;;;;;;;0.98;0.77;;;20.40;40.80;;;23.97;27.20;100292.59;4886755;29;20536;-76
2021/12/03 08:47:05;;;;;;;0.60;0.60;;;20.40;40.70;;;24.00;27.58;100289.66;4870947;29;20056;-76
2021/12/03 08:49:46;;;;;;;0.70;0.70;;;20.40;40.60;;;23.99;27.28;100296.84;4871385;29;20052;-76
2021/12/03 08:54:52;;;;;;;0.88;0.60;;;20.40;40.60;;;24.01;27.23;100286.03;4886404;29;20055;-76
2021/12/03 08:57:31;;;;;;;0.80;0.80;;;20.40;40.60;;;24.03;27.16;100295.59;4886255;29;20462;-76
2021/12/03 09:00:01;;;;;;;0.77;0.77;;;20.40;40.50;;;24.03;27.31;100297.44;4886290;29;20048;-76
2021/12/03 09:02:27;;;;;;;1.45;0.80;;;20.40;40.60;;;24.06;27.36;100297.19;4871177;29;20386;-76
2021/12/03 09:04:54;;;;;;;1.13;0.70;;;20.40;40.60;;;24.04;27.26;100289.28;4886136;29;20049;-76
2021/12/03 09:07:19;;;;;;;1.30;0.73;;;20.50;40.60;;;24.04;27.10;100302.66;4886341;29;20056;-76
2021/12/03 09:09:45;;;;;;;0.90;0.70;;;20.50;40.50;;;24.07;27.26;100303.34;4886263;29;20052;-76
2021/12/03 09:12:11;;;;;;;0.63;0.63;;;20.50;40.50;;;24.08;27.29;100305.06;4886265;29;20052;-76
2021/12/03 09:17:19;;;;;;;0.80;0.63;;;20.40;40.50;;;24.06;27.33;100294.50;4870444;29;20052;-76
2021/12/03 09:19:58;;;;;;;0.73;0.70;;;20.50;40.50;;;24.10;27.13;100297.75;4886085;29;20453;-76
2021/12/03 09:25:17;;;;;;;1.35;0.85;;;20.50;40.50;;;24.05;27.27;100300.81;4872750;29;20060;-76
2021/12/03 09:27:45;;;;;;;1.23;0.70;;;20.50;40.50;;;24.02;27.23;100293.06;4870524;29;20060;-76
2021/12/03 09:30:14;;;;;;;1.10;0.75;;;20.50;40.50;;;24.08;27.13;100300.56;4900885;29;20044;-76
2021/12/03 09:32:47;;;;;;;0.70;0.70;;;20.50;40.50;;;24.07;27.23;100293.50;4867872;29;20409;-75
2021/12/03 09:35:13;;;;;;;0.60;0.60;;;20.50;40.40;;;24.06;27.24;100294.50;4868412;29;20104;-76
2021/12/03 09:37:40;;;;;;;0.82;0.82;;;20.50;41.00;;;24.08;27.28;100292.53;4882711;29;20056;-75
2021/12/03 09:40:09;;;;;;;1.02;0.70;;;20.50;40.40;;;24.08;27.16;100294.38;4882949;29;20052;-75
2021/12/03 09:42:38;;;;;;;1.48;0.77;;;20.50;40.40;;;24.04;27.21;100278.59;4883356;29;20049;-76
2021/12/03 09:45:10;;;;;;;1.20;0.73;;;20.50;40.40;;;24.09;27.14;100293.38;4883681;29;20049;-76
2021/12/03 09:47:36;;;;;;;1.75;0.88;;;20.50;40.50;;;24.10;27.01;100287.06;4882696;29;20040;-76
2021/12/03 09:50:05;;;;;;;1.00;0.80;;;20.50;40.50;;;24.09;27.29;100288.91;4899340;29;20155;-76
2021/12/03 09:55:16;;;;;;;0.68;0.60;;;20.50;41.00;;;24.10;27.13;100290.59;4885404;29;20080;-75
2021/12/03 09:57:56;;;;;;;1.52;1.00;;;20.50;40.50;;;24.09;27.15;100283.56;4882444;29;20048;-75
2021/12/03 10:03:26;;;;;;;0.60;0.60;;;20.50;40.40;;;24.09;27.44;100280.03;4884109;29;20321;-75
2021/12/03 10:14:37;;;;;;;1.27;0.70;;;20.50;40.40;;;24.06;27.17;100259.78;4883612;29;20135;-76
2021/12/03 10:17:30;;;;;;;1.33;0.65;;;20.50;40.40;;;24.07;27.24;100263.28;4883808;29;20083;-76
2021/12/03 10:23:20;;;;;;;0.60;0.60;;;20.50;40.40;;;24.06;27.40;100251.78;4882813;29;20057;-76
2021/12/03 10:34:11;;;;;;;0.70;0.70;;;20.50;40.50;;;24.06;27.17;100238.41;4884884;29;20052;-76
2021/12/03 10:36:52;;;;;;;1.20;0.90;;;20.50;40.50;;;24.10;27.15;100252.34;4883235;29;20084;-76
2021/12/03 10:42:20;;;;;;;0.93;0.73;;;20.50;40.50;;;24.07;27.38;100245.44;4881602;29;20060;-76
2021/12/03 10:45:32;;;;;;;1.05;0.60;;;20.40;40.50;;;24.06;27.14;100238.41;4898516;29;20048;-76
2021/12/03 10:48:13;;;;;;;1.17;0.63;;;20.40;40.50;;;24.07;27.15;100229.41;4885533;29;20461;-76
2021/12/03 10:53:19;;;;;;;1.13;0.80;;;20.40;40.40;;;24.10;27.02;100222.97;4898162;29;20067;-76
2021/12/03 11:17:48;;;;;;;0.70;0.70;;;20.40;40.50;;;24.07;27.26;100197.38;4883914;29;20060;-76